createdAt,value
2018-04-20T00:00:16.693Z,101523.40
2018-04-20T00:02:47.394Z,101518.28
2018-04-20T00:05:18.382Z,101519.91
2018-04-20T00:07:49.079Z,101513.23
2018-04-20T00:10:19.452Z,101513.66
2018-04-20T00:12:50.414Z,101507.72
2018-04-20T00:15:21.306Z,101505.60
2018-04-20T00:17:52.306Z,101505.25
2018-04-20T00:20:23.292Z,101501.46
2018-04-20T00:22:54.337Z,101502.88
2018-04-20T00:25:25.277Z,101498.88
2018-04-20T00:27:56.355Z,101499.57
2018-04-20T00:30:27.369Z,101500.22
2018-04-20T00:32:58.378Z,101499.95
2018-04-20T00:35:29.378Z,101502.70
2018-04-20T00:38:00.335Z,101502.84
2018-04-20T00:40:31.355Z,101500.89
2018-04-20T00:43:02.334Z,101499.03
2018-04-20T00:45:33.337Z,101495.80
2018-04-20T00:48:04.066Z,101498.98
2018-04-20T00:50:34.731Z,101500.70
2018-04-20T00:53:05.465Z,101502.41
2018-04-20T00:55:36.505Z,101495.39
2018-04-20T00:58:07.479Z,101498.30
2018-04-20T01:00:37.907Z,101499.00
2018-04-20T01:03:08.408Z,101501.13
2018-04-20T01:05:39.249Z,101498.63
2018-04-20T01:08:10.321Z,101495.77
2018-04-20T01:10:41.337Z,101497.53
2018-04-20T01:13:12.299Z,101502.17
2018-04-20T01:15:43.318Z,101498.46
2018-04-20T01:18:14.371Z,101500.05
2018-04-20T01:20:45.273Z,101498.50
2018-04-20T01:23:16.302Z,101500.08
2018-04-20T01:25:47.331Z,101496.84
2018-04-20T01:28:18.453Z,101495.45
2018-04-20T01:30:49.360Z,101497.50
2018-04-20T01:33:20.302Z,101490.34
2018-04-20T01:35:51.289Z,101495.55
2018-04-20T01:38:22.350Z,101497.25
2018-04-20T01:40:53.351Z,101497.10
2018-04-20T01:43:24.330Z,101496.14
2018-04-20T01:45:55.330Z,101490.05
2018-04-20T01:48:26.374Z,101492.56
2018-04-20T01:50:57.278Z,101490.82
2018-04-20T01:53:27.965Z,101496.09
2018-04-20T01:55:58.624Z,101496.58
2018-04-20T01:58:29.438Z,101485.11
2018-04-20T02:01:00.351Z,101481.68
2018-04-20T02:03:31.455Z,101476.83
2018-04-20T02:06:02.339Z,101483.78
2018-04-20T02:08:33.325Z,101480.14
2018-04-20T02:11:04.303Z,101478.87
2018-04-20T02:13:34.982Z,101471.78
2018-04-20T02:16:05.604Z,101474.81
2018-04-20T02:18:36.396Z,101478.39
2018-04-20T02:21:07.275Z,101469.62
2018-04-20T02:23:38.325Z,101474.17
2018-04-20T02:26:08.965Z,101475.86
2018-04-20T02:28:39.709Z,101476.15
2018-04-20T02:31:10.532Z,101484.02
2018-04-20T02:33:41.326Z,101479.36
2018-04-20T02:36:12.250Z,101487.63
2018-04-20T02:38:43.320Z,101486.73
2018-04-20T02:41:14.290Z,101479.92
2018-04-20T02:43:45.326Z,101483.95
2018-04-20T02:46:15.993Z,101480.31
2018-04-20T02:48:46.691Z,101482.82
2018-04-20T02:51:17.390Z,101482.19
2018-04-20T02:53:48.430Z,101474.01
2018-04-20T02:56:19.319Z,101476.01
2018-04-20T02:58:50.442Z,101476.28
2018-04-20T03:01:21.325Z,101476.98
2018-04-20T03:03:52.361Z,101476.47
2018-04-20T03:06:22.938Z,101478.16
2018-04-20T03:08:53.691Z,101472.82
2018-04-20T03:11:24.310Z,101477.28
2018-04-20T03:13:55.347Z,101478.95
2018-04-20T03:16:26.237Z,101463.53
2018-04-20T03:18:56.922Z,101468.19
2018-04-20T03:21:27.354Z,101466.73
2018-04-20T03:23:58.354Z,101470.13
2018-04-20T03:26:29.341Z,101467.93
2018-04-20T03:29:00.402Z,101468.42
2018-04-20T03:31:31.061Z,101469.59
2018-04-20T03:34:01.807Z,101466.34
2018-04-20T03:36:32.322Z,101470.78
2018-04-20T03:39:03.330Z,101466.85
2018-04-20T03:41:33.913Z,101471.53
2018-04-20T03:44:04.678Z,101466.12
2018-04-20T03:46:35.117Z,101462.44
2018-04-20T03:49:06.162Z,101462.67
2018-04-20T03:51:37.165Z,101466.88
2018-04-20T03:54:08.249Z,101464.88
2018-04-20T03:56:39.246Z,101462.83
2018-04-20T03:59:10.555Z,101460.70
2018-04-20T04:01:41.282Z,101461.83
2018-04-20T04:04:12.333Z,101466.08
2018-04-20T04:06:43.319Z,101463.33
2018-04-20T04:09:14.318Z,101463.08
2018-04-20T04:11:44.974Z,101466.28
2018-04-20T04:14:15.729Z,101442.91
2018-04-20T04:16:57.345Z,101468.80
2018-04-20T04:19:37.583Z,101472.61
2018-04-20T04:22:17.422Z,101470.92
2018-04-20T04:24:57.317Z,101469.24
2018-04-20T04:27:37.221Z,101469.31
2018-04-20T04:30:06.266Z,101473.91
2018-04-20T04:32:35.210Z,101474.38
2018-04-20T04:35:04.228Z,101467.39
2018-04-20T04:37:33.290Z,101472.23
2018-04-20T04:40:02.237Z,101468.17
2018-04-20T04:42:31.227Z,101471.04
2018-04-20T04:45:00.225Z,101472.61
2018-04-20T04:47:29.424Z,101470.31
2018-04-20T04:49:58.370Z,101473.61
2018-04-20T04:52:27.446Z,101470.23
2018-04-20T04:54:56.390Z,101480.70
2018-04-20T04:57:25.383Z,101479.47
2018-04-20T04:59:54.521Z,101477.44
2018-04-20T05:02:23.507Z,101477.22
2018-04-20T05:04:52.487Z,101474.88
2018-04-20T05:07:21.611Z,101479.64
2018-04-20T05:09:50.890Z,101488.61
2018-04-20T05:12:20.190Z,101485.56
2018-04-20T05:14:49.704Z,101486.58
2018-04-20T05:17:18.682Z,101495.46
2018-04-20T05:19:47.690Z,101490.41
2018-04-20T05:22:16.799Z,101484.75
2018-04-20T05:24:45.779Z,101490.35
2018-04-20T05:27:14.766Z,101485.36
2018-04-20T05:29:43.839Z,101482.22
2018-04-20T05:32:12.799Z,101482.70
2018-04-20T05:34:41.777Z,101488.55
2018-04-20T05:37:12.422Z,101479.89
2018-04-20T05:39:43.326Z,101485.11
2018-04-20T05:42:14.410Z,101480.19
2018-04-20T05:44:44.880Z,101483.24
2018-04-20T05:47:16.279Z,101474.64
2018-04-20T05:49:47.200Z,101480.27
2018-04-20T05:52:18.102Z,101480.34
2018-04-20T05:54:49.054Z,101479.23
2018-04-20T05:57:19.917Z,101479.69
2018-04-20T05:59:51.473Z,101478.66
2018-04-20T06:02:22.151Z,101475.23
2018-04-20T06:04:53.082Z,101472.07
2018-04-20T06:07:25.743Z,101467.92
2018-04-20T06:09:55.578Z,101472.24
2018-04-20T06:12:26.203Z,101465.77
2018-04-20T06:14:57.133Z,101463.50
2018-04-20T06:17:28.131Z,101461.52
2018-04-20T06:19:59.034Z,101462.08
2018-04-20T06:22:29.490Z,101458.17
2018-04-20T06:25:00.265Z,101466.89
2018-04-20T06:27:31.064Z,101461.58
2018-04-20T06:30:02.186Z,101457.85
2018-04-20T06:32:33.150Z,101456.19
2018-04-20T06:35:04.168Z,101459.03
2018-04-20T06:37:35.246Z,101456.14
2018-04-20T06:40:06.281Z,101448.81
2018-04-20T06:42:37.286Z,101461.84
2018-04-20T06:45:08.297Z,101456.38
2018-04-20T06:47:39.235Z,101466.51
2018-04-20T06:50:10.246Z,101459.34
